createdAt,value
2022-12-11T00:00:28.862Z,14.93
2022-12-11T00:02:56.807Z,17.77
2022-12-11T00:05:24.270Z,22.58
2022-12-11T00:07:51.387Z,17.77
2022-12-11T00:10:18.415Z,20.10
2022-12-11T00:12:45.475Z,17.85
2022-12-11T00:15:12.953Z,14.50
2022-12-11T00:17:40.227Z,18.35
2022-12-11T00:20:08.208Z,18.73
2022-12-11T00:22:35.403Z,18.67
2022-12-11T00:25:02.547Z,19.35
2022-12-11T00:27:30.087Z,19.17
2022-12-11T00:29:57.627Z,14.50
2022-12-11T00:32:28.217Z,24.90
2022-12-11T00:34:55.509Z,25.02
2022-12-11T00:37:22.482Z,14.77
2022-12-11T00:39:49.530Z,15.18
2022-12-11T00:42:16.618Z,16.35
2022-12-11T00:44:43.599Z,20.88
2022-12-11T00:47:10.652Z,18.98
2022-12-11T00:49:37.620Z,26.42
2022-12-11T00:52:07.516Z,17.67
2022-12-11T00:54:37.482Z,30.25
2022-12-11T00:57:04.471Z,15.43
2022-12-11T00:59:31.782Z,22.85
2022-12-11T01:01:58.793Z,24.00
2022-12-11T01:04:25.838Z,15.82
2022-12-11T01:06:52.936Z,18.17
2022-12-11T01:09:38.425Z,17.50
2022-12-11T01:12:08.359Z,16.70
2022-12-11T01:14:35.511Z,17.90
2022-12-11T01:17:02.636Z,16.23
2022-12-11T01:19:29.718Z,12.32
2022-12-11T01:21:56.743Z,15.90
2022-12-11T01:24:23.782Z,10.85
2022-12-11T01:26:50.889Z,15.57
2022-12-11T01:29:17.994Z,16.00
2022-12-11T01:31:45.026Z,13.23
2022-12-11T01:34:12.522Z,19.50
2022-12-11T01:36:39.574Z,18.30
2022-12-11T01:39:06.712Z,30.13
2022-12-11T01:41:33.792Z,26.55
2022-12-11T01:44:28.798Z,15.65
2022-12-11T01:46:56.023Z,18.40
2022-12-11T01:49:26.962Z,14.65
2022-12-11T01:52:01.803Z,15.15
2022-12-11T01:54:30.361Z,12.50
2022-12-11T01:57:04.083Z,13.15
2022-12-11T01:59:34.314Z,21.15
2022-12-11T02:02:06.320Z,17.27
2022-12-11T02:04:36.102Z,21.38
2022-12-11T02:07:04.064Z,25.13
2022-12-11T02:09:34.007Z,21.38
2022-12-11T02:12:11.440Z,21.17
2022-12-11T02:14:44.445Z,15.27
2022-12-11T02:17:29.756Z,17.63
2022-12-11T02:20:23.135Z,16.13
2022-12-11T02:23:11.889Z,14.95
2022-12-11T02:25:57.606Z,18.70
2022-12-11T02:28:38.223Z,15.30
2022-12-11T02:31:29.852Z,13.35
2022-12-11T02:34:04.632Z,22.58
2022-12-11T02:36:37.861Z,11.40
2022-12-11T02:39:07.847Z,16.13
2022-12-11T02:41:35.343Z,18.88
2022-12-11T02:44:05.345Z,22.30
2022-12-11T02:46:34.749Z,17.25
2022-12-11T02:49:05.648Z,17.95
2022-12-11T02:51:41.534Z,15.43
2022-12-11T02:54:13.950Z,22.77
2022-12-11T02:56:46.813Z,20.42
2022-12-11T02:59:20.178Z,17.92
2022-12-11T03:01:47.746Z,25.38
2022-12-11T03:04:15.082Z,20.45
2022-12-11T03:06:48.587Z,20.55
2022-12-11T03:09:15.701Z,16.73
2022-12-11T03:11:42.845Z,20.05
2022-12-11T03:14:10.011Z,27.50
2022-12-11T03:16:40.141Z,24.65
2022-12-11T03:19:13.141Z,26.73
2022-12-11T03:21:50.337Z,24.90
2022-12-11T03:24:28.821Z,18.67
2022-12-11T03:27:11.257Z,23.73
2022-12-11T03:29:45.428Z,17.00
2022-12-11T03:32:20.057Z,21.10
2022-12-11T03:34:59.915Z,22.55
2022-12-11T03:37:31.331Z,15.90
2022-12-11T03:40:04.611Z,15.75
2022-12-11T03:42:32.404Z,19.80
2022-12-11T03:45:01.254Z,14.95
2022-12-11T03:47:32.419Z,23.20
2022-12-11T03:50:01.606Z,12.48
2022-12-11T03:52:32.588Z,16.55
2022-12-11T03:55:03.744Z,27.30
2022-12-11T03:57:35.359Z,12.43
2022-12-11T04:00:05.163Z,16.30
2022-12-11T04:02:39.689Z,18.67
2022-12-11T04:05:07.608Z,16.55
2022-12-11T04:07:34.908Z,23.02
2022-12-11T04:10:02.787Z,30.88
2022-12-11T04:12:30.269Z,21.90
2022-12-11T04:15:03.251Z,27.83
2022-12-11T04:17:54.819Z,25.67
2022-12-11T04:20:57.560Z,27.15
2022-12-11T04:23:43.051Z,19.27
2022-12-11T04:26:13.233Z,27.65
2022-12-11T04:28:41.454Z,23.50
2022-12-11T04:31:17.246Z,28.45
2022-12-11T04:33:44.326Z,26.92
2022-12-11T04:36:12.520Z,26.95
2022-12-11T04:38:40.158Z,11.43
2022-12-11T04:41:12.708Z,25.55
2022-12-11T04:43:40.324Z,16.65
2022-12-11T04:46:10.976Z,20.63
2022-12-11T04:48:39.703Z,20.17
2022-12-11T04:51:08.239Z,20.60
2022-12-11T04:53:35.736Z,21.88
2022-12-11T04:56:06.317Z,16.30
2022-12-11T04:58:33.643Z,17.50
2022-12-11T05:01:00.656Z,17.00
2022-12-11T05:03:27.688Z,22.55
2022-12-11T05:05:54.778Z,24.75
2022-12-11T05:08:22.387Z,28.48
2022-12-11T05:11:00.299Z,21.08
2022-12-11T05:13:29.051Z,25.35
2022-12-11T05:15:56.937Z,12.02
2022-12-11T05:18:24.848Z,16.70
2022-12-11T05:20:59.363Z,23.65
2022-12-11T05:23:26.976Z,26.60
2022-12-11T05:25:59.762Z,27.98
2022-12-11T05:28:29.672Z,11.88
2022-12-11T05:31:02.613Z,24.92
2022-12-11T05:33:30.136Z,28.27
2022-12-11T05:35:57.644Z,9.93
2022-12-11T05:38:24.815Z,17.60
2022-12-11T05:41:04.391Z,17.80
2022-12-11T05:43:34.296Z,18.05
2022-12-11T05:46:13.212Z,20.10
2022-12-11T05:48:41.440Z,21.58
2022-12-11T05:51:09.330Z,31.98
2022-12-11T05:53:38.281Z,25.30
2022-12-11T05:56:09.577Z,19.23
2022-12-11T05:58:39.409Z,22.88
2022-12-11T06:01:11.954Z,25.30
2022-12-11T06:03:39.382Z,32.45
2022-12-11T06:06:07.674Z,27.75
2022-12-11T06:08:35.008Z,24.08
2022-12-11T06:11:02.385Z,23.17
2022-12-11T06:13:29.677Z,27.13
2022-12-11T06:16:01.576Z,22.08
2022-12-11T06:18:29.186Z,21.35
2022-12-11T06:20:56.378Z,25.90
2022-12-11T06:23:23.899Z,24.67
2022-12-11T06:25:50.992Z,20.45
2022-12-11T06:28:18.060Z,17.35
2022-12-11T06:30:45.244Z,28.83
2022-12-11T06:33:12.418Z,18.95
2022-12-11T06:35:42.277Z,11.77
2022-12-11T06:38:10.921Z,13.85
2022-12-11T06:40:38.468Z,14.77
2022-12-11T06:43:05.513Z,22.35
2022-12-11T06:45:33.272Z,23.13
2022-12-11T06:48:00.767Z,18.20
2022-12-11T06:50:28.926Z,13.15
2022-12-11T06:52:56.975Z,12.32
2022-12-11T06:55:24.134Z,13.27
2022-12-11T06:57:51.229Z,14.57
2022-12-11T07:00:18.583Z,12.82
2022-12-11T07:02:45.806Z,16.65
2022-12-11T07:05:16.169Z,28.83
2022-12-11T07:07:43.518Z,13.07
2022-12-11T07:10:10.668Z,11.02
2022-12-11T07:12:37.799Z,11.23
2022-12-11T07:15:05.756Z,11.70
2022-12-11T07:17:33.403Z,10.75
2022-12-11T07:20:00.737Z,9.35
2022-12-11T07:22:31.363Z,11.50
2022-12-11T07:24:58.582Z,13.30
2022-12-11T07:27:26.612Z,13.95
2022-12-11T07:29:55.636Z,11.05
2022-12-11T07:32:22.954Z,12.38
2022-12-11T07:34:52.129Z,15.85
2022-12-11T07:37:20.536Z,13.27
2022-12-11T07:39:49.083Z,10.75
2022-12-11T07:42:16.208Z,10.48
2022-12-11T07:44:43.350Z,11.82
2022-12-11T07:47:10.374Z,14.55
2022-12-11T07:49:37.464Z,13.82
2022-12-11T07:52:04.637Z,14.25
2022-12-11T07:54:31.747Z,13.75
2022-12-11T07:56:58.839Z,8.90
2022-12-11T07:59:26.083Z,8.88
2022-12-11T08:01:53.281Z,9.82
2022-12-11T08:04:20.458Z,9.70
2022-12-11T08:06:50.658Z,9.35
2022-12-11T08:09:21.254Z,10.65
2022-12-11T08:11:51.388Z,10.27
2022-12-11T08:14:19.711Z,10.50
2022-12-11T08:16:47.248Z,9.43
2022-12-11T08:19:15.143Z,10.40
2022-12-11T08:21:42.469Z,10.60
2022-12-11T08:24:10.368Z,9.95
2022-12-11T08:26:37.572Z,11.10
2022-12-11T08:29:04.899Z,11.45
2022-12-11T08:31:33.520Z,15.52
2022-12-11T08:34:00.927Z,11.77
2022-12-11T08:36:28.967Z,11.00
2022-12-11T08:38:56.756Z,11.15
2022-12-11T08:41:30.591Z,11.55
2022-12-11T08:43:59.036Z,11.60
2022-12-11T08:46:28.770Z,10.52
2022-12-11T08:48:56.951Z,9.18
2022-12-11T08:51:27.119Z,10.40
2022-12-11T08:53:59.792Z,9.95
2022-12-11T08:56:28.332Z,12.27
2022-12-11T08:58:55.476Z,10.23
2022-12-11T09:01:25.553Z,12.75
2022-12-11T09:03:53.996Z,10.43
2022-12-11T09:06:23.228Z,10.75
2022-12-11T09:08:53.178Z,9.48
2022-12-11T09:11:27.774Z,10.27
2022-12-11T09:13:54.995Z,10.57
2022-12-11T09:16:24.837Z,10.73
2022-12-11T09:18:53.921Z,10.25
2022-12-11T09:21:23.820Z,10.00
2022-12-11T09:23:54.512Z,10.55
2022-12-11T09:26:22.077Z,11.80
2022-12-11T09:28:53.149Z,11.80
2022-12-11T09:31:30.252Z,8.15
2022-12-11T09:34:01.010Z,8.38
2022-12-11T09:36:28.546Z,10.85
2022-12-11T09:38:55.916Z,10.02
2022-12-11T09:41:22.912Z,10.10
2022-12-11T09:43:52.632Z,10.65
2022-12-11T09:46:24.436Z,10.38
2022-12-11T09:48:53.839Z,10.40
2022-12-11T09:51:30.453Z,11.85
2022-12-11T09:54:02.991Z,11.68
2022-12-11T09:56:34.172Z,10.05
2022-12-11T09:59:23.282Z,10.75
2022-12-11T10:01:54.966Z,12.60
2022-12-11T10:04:34.096Z,12.80
2022-12-11T10:07:18.660Z,10.40
2022-12-11T10:09:55.842Z,11.90
2022-12-11T10:12:38.694Z,10.88
2022-12-11T10:15:26.401Z,12.23
2022-12-11T10:18:02.967Z,11.75
2022-12-11T10:20:39.206Z,11.93
2022-12-11T10:23:18.614Z,11.43
2022-12-11T10:25:57.318Z,10.35
2022-12-11T10:28:28.251Z,11.77
2022-12-11T10:31:17.306Z,12.20
2022-12-11T10:34:00.892Z,10.45
2022-12-11T10:39:17.073Z,11.55
2022-12-11T10:44:33.201Z,13.38
2022-12-11T10:47:14.110Z,10.60
2022-12-11T10:49:55.106Z,12.48
2022-12-11T10:52:34.245Z,9.88
2022-12-11T10:55:23.199Z,12.27
2022-12-11T11:01:12.522Z,10.93
2022-12-11T11:04:06.943Z,9.88
2022-12-11T11:06:34.182Z,10.68
2022-12-11T11:09:02.540Z,12.13
2022-12-11T11:11:33.965Z,12.95
2022-12-11T11:14:23.445Z,12.02
2022-12-11T11:16:52.782Z,10.70
2022-12-11T11:19:36.336Z,11.25
2022-12-11T11:22:08.980Z,10.20
2022-12-11T11:24:44.890Z,12.10
2022-12-11T11:27:52.515Z,11.88
2022-12-11T11:30:29.796Z,10.55
2022-12-11T11:33:02.861Z,11.18
2022-12-11T11:35:32.447Z,11.13
2022-12-11T11:41:21.903Z,10.68
2022-12-11T12:13:50.166Z,11.25
2022-12-11T12:19:30.754Z,11.32
2022-12-11T12:22:14.705Z,10.98
2022-12-11T12:25:09.137Z,12.65
2022-12-11T12:28:07.572Z,10.65
2022-12-11T12:30:58.762Z,12.18
2022-12-11T12:33:49.375Z,11.82
2022-12-11T12:36:23.204Z,9.82
2022-12-11T12:39:02.411Z,10.70
2022-12-11T12:41:55.534Z,10.65
2022-12-11T12:44:25.038Z,9.68
2022-12-11T12:47:12.795Z,8.38
2022-12-11T12:49:51.250Z,9.32
2022-12-11T12:52:27.687Z,8.20
2022-12-11T12:55:16.609Z,7.55
2022-12-11T12:57:57.949Z,8.38
2022-12-11T13:00:36.756Z,8.77
2022-12-11T13:03:30.701Z,6.55
2022-12-11T13:06:08.035Z,6.78
2022-12-11T13:08:43.864Z,6.55
2022-12-11T13:11:18.114Z,7.32
2022-12-11T13:16:46.085Z,5.65
2022-12-11T13:19:18.019Z,7.07
2022-12-11T13:21:57.048Z,8.07
2022-12-11T13:24:25.949Z,8.68
2022-12-11T13:26:53.307Z,7.68
2022-12-11T13:29:40.161Z,8.15
2022-12-11T13:32:10.111Z,7.55
2022-12-11T13:34:43.383Z,7.88
2022-12-11T13:39:50.679Z,6.15
2022-12-11T13:42:39.262Z,6.75
2022-12-11T13:45:08.557Z,7.88
2022-12-11T13:47:36.551Z,7.88
2022-12-11T13:50:23.135Z,7.38
2022-12-11T13:52:55.253Z,7.80
2022-12-11T13:55:26.224Z,8.55
2022-12-11T13:57:54.399Z,7.25
2022-12-11T14:00:24.866Z,6.97
2022-12-11T14:02:55.034Z,8.68
2022-12-11T14:05:22.934Z,8.00
2022-12-11T14:07:54.532Z,7.05
2022-12-11T14:10:28.752Z,9.07
2022-12-11T14:13:14.874Z,7.97
2022-12-11T14:15:45.858Z,7.82
2022-12-11T14:18:18.362Z,9.90
2022-12-11T14:20:45.598Z,7.55
2022-12-11T14:23:18.755Z,7.05
2022-12-11T14:28:22.010Z,10.82
2022-12-11T14:30:52.180Z,12.07
2022-12-11T14:33:23.668Z,12.02
2022-12-11T14:35:55.369Z,11.45
2022-12-11T14:38:44.555Z,11.57
2022-12-11T14:41:22.374Z,10.43
2022-12-11T14:43:53.535Z,9.50
2022-12-11T14:46:33.281Z,11.23
2022-12-11T14:49:07.516Z,6.95
2022-12-11T14:51:40.660Z,8.77
2022-12-11T14:54:20.181Z,9.88
2022-12-11T14:56:47.745Z,6.82
2022-12-11T14:59:25.662Z,7.95
2022-12-11T15:02:03.620Z,7.72
2022-12-11T15:04:33.604Z,9.18
2022-12-11T15:07:00.921Z,7.85
2022-12-11T15:09:28.720Z,7.55
2022-12-11T15:12:08.656Z,11.82
2022-12-11T15:14:35.929Z,7.93
2022-12-11T15:17:03.141Z,6.60
2022-12-11T15:19:35.261Z,8.38
2022-12-11T15:22:09.776Z,8.55
2022-12-11T15:24:40.620Z,8.38
2022-12-11T15:27:37.513Z,7.47
2022-12-11T15:30:32.213Z,8.10
2022-12-11T15:33:02.700Z,6.38
2022-12-11T15:35:32.913Z,6.28
2022-12-11T15:38:00.012Z,8.48
2022-12-11T15:40:28.792Z,8.13
2022-12-11T15:42:57.576Z,12.15
2022-12-11T15:45:30.815Z,7.88
2022-12-11T15:50:30.370Z,6.90
2022-12-11T15:52:58.660Z,9.35
2022-12-11T15:55:27.472Z,20.55
2022-12-11T15:58:00.234Z,9.45
2022-12-11T16:00:39.647Z,18.65
2022-12-11T16:03:06.769Z,24.33
2022-12-11T16:05:33.842Z,18.95
2022-12-11T16:08:01.019Z,12.82
2022-12-11T16:10:28.404Z,19.38
2022-12-11T16:12:59.609Z,20.77
2022-12-11T16:15:27.674Z,23.23
2022-12-11T16:18:07.294Z,9.70
2022-12-11T16:20:38.269Z,18.98
2022-12-11T16:23:06.053Z,13.45
2022-12-11T16:25:34.296Z,14.43
2022-12-11T16:28:01.861Z,13.50
2022-12-11T16:30:29.884Z,10.75
2022-12-11T16:32:57.332Z,7.88
2022-12-11T16:35:24.447Z,5.15
2022-12-11T16:37:54.291Z,10.73
2022-12-11T16:40:22.368Z,17.90
2022-12-11T16:42:49.738Z,15.70
2022-12-11T16:45:22.673Z,13.50
2022-12-11T16:47:52.808Z,17.70
2022-12-11T16:50:20.964Z,15.52
2022-12-11T16:52:48.173Z,18.10
2022-12-11T16:55:15.778Z,21.20
2022-12-11T16:57:45.844Z,18.40
2022-12-11T17:00:13.507Z,8.40
2022-12-11T17:02:40.640Z,16.98
2022-12-11T17:05:08.220Z,13.38
2022-12-11T17:07:35.320Z,10.32
2022-12-11T17:10:03.374Z,7.75
2022-12-11T17:12:31.568Z,11.98
2022-12-11T17:14:58.756Z,10.10
2022-12-11T17:17:26.113Z,14.50
2022-12-11T17:19:53.292Z,22.52
2022-12-11T17:22:20.421Z,6.00
2022-12-11T17:24:47.730Z,16.40
2022-12-11T17:27:17.145Z,29.73
2022-12-11T17:29:44.470Z,8.65
2022-12-11T17:32:11.575Z,12.75
2022-12-11T17:34:38.906Z,25.65
2022-12-11T17:37:06.132Z,15.73
2022-12-11T17:39:33.640Z,35.70
2022-12-11T17:42:01.079Z,9.43
2022-12-11T17:44:30.689Z,7.80
2022-12-11T17:46:59.037Z,8.85
2022-12-11T17:49:26.832Z,16.17
2022-12-11T17:51:55.538Z,3.70
2022-12-11T17:54:24.264Z,6.53
2022-12-11T17:56:51.642Z,7.88
2022-12-11T17:59:18.711Z,5.57
2022-12-11T18:01:45.891Z,5.25
2022-12-11T18:04:13.642Z,2.08
2022-12-11T18:06:40.844Z,2.40
2022-12-11T18:09:08.017Z,6.43
2022-12-11T18:11:35.334Z,2.65
2022-12-11T18:14:02.429Z,2.90
2022-12-11T18:16:33.434Z,1.67
2022-12-11T18:19:00.864Z,2.33
2022-12-11T18:21:31.965Z,2.75
2022-12-11T18:24:00.101Z,2.75
2022-12-11T18:26:29.202Z,3.05
2022-12-11T18:28:56.308Z,2.22
2022-12-11T18:31:24.529Z,2.28
2022-12-11T18:33:52.360Z,2.05
2022-12-11T18:36:20.286Z,2.17
2022-12-11T18:38:48.168Z,1.92
2022-12-11T18:41:16.820Z,1.98
2022-12-11T18:43:44.384Z,1.77
2022-12-11T18:46:14.452Z,2.25
2022-12-11T18:48:43.381Z,1.88
2022-12-11T18:51:14.032Z,2.20
2022-12-11T18:53:41.436Z,2.45
2022-12-11T18:56:11.439Z,2.50
2022-12-11T18:58:39.213Z,2.60
2022-12-11T19:01:26.973Z,2.63
2022-12-11T19:04:02.047Z,1.90
2022-12-11T19:06:33.307Z,2.00
2022-12-11T19:09:00.589Z,2.22
2022-12-11T19:11:30.245Z,3.13
2022-12-11T19:13:57.973Z,2.90
2022-12-11T19:16:33.891Z,3.67
2022-12-11T19:19:07.500Z,3.60
2022-12-11T19:21:36.822Z,3.10
2022-12-11T19:24:04.962Z,2.72
2022-12-11T19:26:32.416Z,3.85
2022-12-11T19:29:00.440Z,3.40
2022-12-11T19:31:29.796Z,3.20
2022-12-11T19:33:56.945Z,3.65
2022-12-11T19:36:28.205Z,3.08
2022-12-11T19:39:01.221Z,2.30
2022-12-11T19:41:30.358Z,3.00
2022-12-11T19:43:59.087Z,2.97
2022-12-11T19:46:27.417Z,3.42
2022-12-11T19:48:57.821Z,4.57
2022-12-11T19:51:28.625Z,3.42
2022-12-11T19:53:56.227Z,4.25
2022-12-11T19:56:23.424Z,3.53
2022-12-11T19:58:50.499Z,3.15
2022-12-11T20:01:31.073Z,6.40
2022-12-11T20:04:01.216Z,5.13
2022-12-11T20:06:29.971Z,4.07
2022-12-11T20:08:58.138Z,6.30
2022-12-11T20:11:25.819Z,4.97
2022-12-11T20:13:55.589Z,4.78
2022-12-11T20:16:39.487Z,6.47
2022-12-11T20:19:10.373Z,6.60
2022-12-11T20:21:37.539Z,6.78
2022-12-11T20:24:04.778Z,7.22
2022-12-11T20:26:32.669Z,10.57
2022-12-11T20:28:59.773Z,4.15
2022-12-11T20:31:27.697Z,8.77
2022-12-11T20:33:56.326Z,6.68
2022-12-11T20:36:24.511Z,13.50
2022-12-11T20:38:52.216Z,15.40
2022-12-11T20:41:21.865Z,11.77
2022-12-11T20:43:49.698Z,20.55
2022-12-11T20:46:18.592Z,24.08
2022-12-11T20:48:46.218Z,11.48
2022-12-11T20:51:19.699Z,21.40
2022-12-11T20:53:57.518Z,9.27
2022-12-11T20:56:26.769Z,21.77
2022-12-11T20:58:54.877Z,14.70
2022-12-11T21:01:24.024Z,22.17
2022-12-11T21:03:53.402Z,11.38
2022-12-11T21:06:25.960Z,18.48
2022-12-11T21:08:53.979Z,6.57
2022-12-11T21:11:21.708Z,8.98
2022-12-11T21:13:51.884Z,12.82
2022-12-11T21:16:19.929Z,16.02
2022-12-11T21:18:47.372Z,13.88
2022-12-11T21:21:15.531Z,16.95
2022-12-11T21:23:43.008Z,25.17
2022-12-11T21:26:10.678Z,32.80
2022-12-11T21:28:37.838Z,13.40
2022-12-11T21:31:09.039Z,18.65
2022-12-11T21:33:36.433Z,13.13
2022-12-11T21:36:06.013Z,27.65
2022-12-11T21:38:33.465Z,15.32
2022-12-11T21:41:14.550Z,27.05
2022-12-11T21:44:06.818Z,23.55
2022-12-11T21:46:30.423Z,20.50
2022-12-11T21:48:57.686Z,15.10
2022-12-11T21:51:37.770Z,12.18
2022-12-11T21:54:10.338Z,17.05
2022-12-11T21:56:37.370Z,25.45
2022-12-11T21:59:05.042Z,14.73
2022-12-11T22:01:36.155Z,12.43
2022-12-11T22:04:05.080Z,16.85
2022-12-11T22:06:32.691Z,21.10
2022-12-11T22:08:59.932Z,18.73
2022-12-11T22:11:30.386Z,15.77
2022-12-11T22:13:57.978Z,14.80
2022-12-11T22:16:25.249Z,13.38
2022-12-11T22:18:53.144Z,39.92
2022-12-11T22:21:21.017Z,16.70
2022-12-11T22:23:48.483Z,16.40
2022-12-11T22:26:21.724Z,14.40
2022-12-11T22:28:49.496Z,15.13
2022-12-11T22:31:20.655Z,17.48
2022-12-11T22:33:50.164Z,13.10
2022-12-11T22:36:19.143Z,17.23
2022-12-11T22:38:47.014Z,19.92
2022-12-11T22:41:24.620Z,12.52
2022-12-11T22:43:51.994Z,12.10
2022-12-11T22:46:22.538Z,15.43
2022-12-11T22:48:50.017Z,16.75
2022-12-11T22:51:17.511Z,13.48
2022-12-11T22:53:44.559Z,14.00
2022-12-11T22:56:13.313Z,12.93
2022-12-11T22:58:42.249Z,14.70
2022-12-11T23:01:15.546Z,10.90
2022-12-11T23:03:42.852Z,14.23
2022-12-11T23:06:12.330Z,11.95
2022-12-11T23:08:41.007Z,11.68
2022-12-11T23:11:29.835Z,12.43
2022-12-11T23:13:57.580Z,11.75
2022-12-11T23:16:26.254Z,13.45
2022-12-11T23:18:54.643Z,13.20
2022-12-11T23:21:22.089Z,7.93
2022-12-11T23:23:49.532Z,10.88
2022-12-11T23:26:18.884Z,13.43
2022-12-11T23:28:46.971Z,9.20
2022-12-11T23:31:14.614Z,11.25
2022-12-11T23:33:42.509Z,11.60
2022-12-11T23:36:10.057Z,12.73
2022-12-11T23:38:37.656Z,11.00
2022-12-11T23:41:06.091Z,12.23
2022-12-11T23:43:35.500Z,13.77
2022-12-11T23:46:13.911Z,11.85
2022-12-11T23:48:41.879Z,11.15
2022-12-11T23:51:11.705Z,10.98
2022-12-11T23:53:38.812Z,9.90
2022-12-11T23:56:12.563Z,13.35
2022-12-11T23:58:41.532Z,12.07
